createdAt,value
2019-02-08T00:00:45.846Z,1.90
2019-02-08T00:03:15.181Z,1.70
2019-02-08T00:05:44.033Z,1.90
2019-02-08T00:08:13.404Z,1.80
2019-02-08T00:10:42.444Z,1.60
2019-02-08T00:13:14.005Z,1.60
2019-02-08T00:15:42.951Z,1.50
2019-02-08T00:18:13.825Z,1.80
2019-02-08T00:20:44.060Z,1.50
2019-02-08T00:23:26.172Z,1.40
2019-02-08T00:25:49.911Z,1.30
2019-02-08T00:28:20.720Z,1.20
2019-02-08T00:30:50.144Z,1.20
2019-02-08T00:33:19.708Z,1.20
2019-02-08T00:35:49.048Z,1.40
2019-02-08T00:38:18.417Z,1.20
2019-02-08T00:40:48.490Z,1.40
2019-02-08T00:43:18.450Z,1.20
2019-02-08T00:45:48.796Z,1.00
2019-02-08T00:48:18.028Z,1.20
2019-02-08T00:50:47.152Z,1.10
2019-02-08T00:53:17.204Z,0.90
2019-02-08T00:55:45.980Z,0.90
2019-02-08T00:58:20.119Z,0.90
2019-02-08T01:00:49.289Z,0.90
2019-02-08T01:03:20.355Z,0.90
2019-02-08T01:05:50.402Z,0.60
2019-02-08T01:08:19.999Z,0.60
2019-02-08T01:10:49.836Z,0.60
2019-02-08T01:13:19.160Z,0.60
2019-02-08T01:15:48.590Z,0.60
2019-02-08T01:18:20.411Z,0.70
2019-02-08T01:20:50.529Z,0.70
2019-02-08T01:23:20.862Z,0.50
2019-02-08T01:25:50.157Z,0.60
2019-02-08T01:28:21.168Z,0.40
2019-02-08T01:30:50.506Z,0.50
2019-02-08T01:33:23.511Z,0.50
2019-02-08T01:35:55.102Z,0.40
2019-02-08T01:38:29.146Z,0.20
2019-02-08T01:40:59.927Z,0.40
2019-02-08T01:43:30.801Z,0.20
2019-02-08T01:46:02.363Z,0.20
2019-02-08T01:48:31.806Z,0.20
2019-02-08T01:51:01.405Z,-0.10
2019-02-08T01:53:32.484Z,0.30
2019-02-08T01:56:02.692Z,-0.10
2019-02-08T01:58:33.879Z,-0.10
2019-02-08T02:01:03.187Z,0.20
2019-02-08T02:03:34.716Z,0.20
2019-02-08T02:06:06.442Z,0.20
2019-02-08T02:08:37.532Z,0.20
2019-02-08T02:11:11.882Z,0.20
2019-02-08T02:13:41.331Z,-0.10
2019-02-08T02:16:19.602Z,-0.10
2019-02-08T02:18:49.487Z,-0.30
2019-02-08T02:21:18.216Z,-0.20
2019-02-08T02:23:55.885Z,-0.30
2019-02-08T02:29:08.949Z,-0.30
2019-02-08T02:31:38.521Z,-0.30
2019-02-08T02:34:09.039Z,-0.30
2019-02-08T02:36:38.144Z,-0.20
2019-02-08T02:39:08.485Z,-0.40
2019-02-08T02:41:37.587Z,-0.40
2019-02-08T02:44:06.797Z,-0.30
2019-02-08T02:46:36.415Z,-0.50
2019-02-08T02:49:06.188Z,-0.50
2019-02-08T02:51:37.558Z,-0.50
2019-02-08T02:54:11.978Z,-0.50
2019-02-08T02:56:46.241Z,-0.50
2019-02-08T02:59:25.448Z,-0.60
2019-02-08T03:01:54.915Z,-0.70
2019-02-08T03:04:27.061Z,-0.60
2019-02-08T03:06:56.714Z,-0.80
2019-02-08T03:09:28.262Z,-0.50
2019-02-08T03:12:07.461Z,-0.70
2019-02-08T03:14:39.203Z,-0.60
2019-02-08T03:17:08.763Z,-0.60
2019-02-08T03:19:39.264Z,-0.80
2019-02-08T03:22:09.887Z,-0.50
2019-02-08T03:24:42.823Z,-1.00
2019-02-08T03:27:12.889Z,-0.60
2019-02-08T03:29:42.702Z,-1.00
2019-02-08T03:32:14.143Z,-1.00
2019-02-08T03:34:43.278Z,-1.00
2019-02-08T03:37:13.609Z,-1.00
2019-02-08T03:39:43.201Z,-1.00
2019-02-08T03:42:12.309Z,-1.00
2019-02-08T03:44:41.459Z,-1.00
2019-02-08T03:47:10.108Z,-1.00
2019-02-08T03:49:39.786Z,-1.00
2019-02-08T03:52:08.518Z,-1.10
2019-02-08T03:54:37.367Z,-0.80
2019-02-08T03:57:06.655Z,-1.00
2019-02-08T03:59:36.153Z,-1.00
2019-02-08T04:02:05.853Z,-1.00
2019-02-08T04:04:35.165Z,-1.20
2019-02-08T04:07:04.522Z,-0.80
2019-02-08T04:09:33.594Z,-1.20
2019-02-08T04:12:02.966Z,-1.20
2019-02-08T04:14:32.187Z,-1.30
2019-02-08T04:17:01.443Z,-1.20
2019-02-08T04:19:30.869Z,-0.80
2019-02-08T04:21:59.593Z,-1.20
2019-02-08T04:24:29.982Z,-1.20
2019-02-08T04:26:58.487Z,-1.00
2019-02-08T04:29:27.319Z,-1.20
2019-02-08T04:31:56.089Z,-1.30
2019-02-08T04:34:24.831Z,-1.20
2019-02-08T04:36:53.473Z,-1.00
2019-02-08T04:39:23.153Z,-1.20
2019-02-08T04:41:52.772Z,-1.20
2019-02-08T04:44:21.572Z,-1.30
2019-02-08T04:46:50.654Z,-1.20
2019-02-08T04:49:20.135Z,-1.30
2019-02-08T04:51:49.353Z,-1.10
2019-02-08T04:54:18.295Z,-1.00
2019-02-08T04:56:47.594Z,-1.20
2019-02-08T04:59:16.942Z,-1.40
2019-02-08T05:01:45.878Z,-1.40
2019-02-08T05:04:14.606Z,-1.40
2019-02-08T05:06:43.272Z,-1.40
2019-02-08T05:09:12.093Z,-1.40
2019-02-08T05:11:43.753Z,-1.40
2019-02-08T05:14:11.683Z,-1.50
2019-02-08T05:16:43.559Z,-1.30
2019-02-08T05:19:12.572Z,-1.30
2019-02-08T05:21:41.580Z,-1.40
2019-02-08T05:24:10.510Z,-1.60
2019-02-08T05:26:39.149Z,-1.60
2019-02-08T05:29:08.738Z,-1.60
2019-02-08T05:31:38.458Z,-1.60
2019-02-08T05:34:07.851Z,-1.60
2019-02-08T05:36:37.628Z,-1.60
2019-02-08T05:39:09.051Z,-1.60
2019-02-08T05:41:38.206Z,-1.60
2019-02-08T05:44:07.147Z,-1.60
2019-02-08T05:46:36.083Z,-1.60
2019-02-08T05:49:05.122Z,-1.60
2019-02-08T05:51:34.019Z,-1.50
2019-02-08T05:54:03.546Z,-1.40
2019-02-08T05:56:32.769Z,-1.60
2019-02-08T05:59:02.465Z,-1.50
2019-02-08T06:01:31.403Z,-1.70
2019-02-08T06:04:00.094Z,-1.60
2019-02-08T06:06:29.035Z,-1.60
2019-02-08T06:08:57.849Z,-1.60
2019-02-08T06:11:27.564Z,-1.60
2019-02-08T06:13:56.970Z,-1.70
2019-02-08T06:16:26.430Z,-1.70
2019-02-08T06:18:55.651Z,-1.70
2019-02-08T06:21:25.042Z,-1.70
2019-02-08T06:23:54.730Z,-1.60
2019-02-08T06:26:24.067Z,-1.60
2019-02-08T06:28:53.381Z,-1.60
2019-02-08T06:31:22.654Z,-1.60
2019-02-08T06:33:51.850Z,-1.60
2019-02-08T06:36:21.213Z,-1.60
2019-02-08T06:38:50.675Z,-1.60
2019-02-08T06:41:20.023Z,-1.60
2019-02-08T06:43:49.821Z,-1.60
2019-02-08T06:46:19.317Z,-1.60
2019-02-08T06:48:48.824Z,-1.60
2019-02-08T06:51:17.680Z,-1.40
2019-02-08T06:53:46.965Z,-1.50
2019-02-08T06:56:17.813Z,-1.70
2019-02-08T06:58:48.512Z,-1.70
2019-02-08T07:01:28.473Z,-1.70
2019-02-08T07:04:05.188Z,-1.50
2019-02-08T07:06:36.353Z,-1.60
2019-02-08T07:09:12.560Z,-1.60
2019-02-08T07:11:43.457Z,-1.30
2019-02-08T07:14:27.082Z,-1.60
2019-02-08T07:17:07.476Z,-1.30
2019-02-08T07:19:38.197Z,-1.50
2019-02-08T07:22:24.287Z,-1.70
2019-02-08T07:25:00.653Z,-1.60
2019-02-08T07:27:37.708Z,-1.70
2019-02-08T07:30:14.268Z,-1.60
2019-02-08T07:32:51.681Z,-1.50
2019-02-08T07:35:22.607Z,-1.70
2019-02-08T07:37:53.236Z,-1.60
2019-02-08T07:40:26.880Z,-1.70
2019-02-08T07:43:04.895Z,-1.80
2019-02-08T07:45:37.767Z,-2.00
2019-02-08T07:48:15.832Z,-1.90
2019-02-08T07:50:52.391Z,-1.90
2019-02-08T07:53:38.391Z,-1.80
2019-02-08T07:56:12.659Z,-1.80
2019-02-08T07:58:47.921Z,-1.90
2019-02-08T08:01:28.149Z,-1.90
2019-02-08T08:04:08.609Z,-1.80
2019-02-08T08:06:40.462Z,-1.80
2019-02-08T08:09:11.797Z,-1.70
2019-02-08T08:11:51.690Z,-1.90
2019-02-08T08:14:39.016Z,-1.80
2019-02-08T08:17:18.965Z,-1.90
2019-02-08T08:19:52.813Z,-1.90
2019-02-08T08:22:26.723Z,-1.80
2019-02-08T08:25:08.277Z,-1.90
2019-02-08T08:27:55.429Z,-1.90
2019-02-08T08:30:36.927Z,-1.90
2019-02-08T08:33:11.277Z,-2.20
2019-02-08T08:36:01.723Z,-1.90
2019-02-08T08:38:55.349Z,-2.00
2019-02-08T08:41:53.655Z,-1.80
2019-02-08T08:45:02.513Z,-2.00
2019-02-08T08:47:35.008Z,-1.90
2019-02-08T08:50:26.398Z,-1.80
2019-02-08T08:53:14.973Z,-1.90
2019-02-08T08:56:06.884Z,-1.80
2019-02-08T08:58:47.474Z,-1.90
2019-02-08T09:01:28.721Z,-1.90
2019-02-08T09:04:17.102Z,-1.90
2019-02-08T09:07:16.108Z,-1.90
2019-02-08T09:09:53.422Z,-1.90
2019-02-08T09:12:31.740Z,-1.90
2019-02-08T09:15:12.770Z,-2.00
2019-02-08T09:17:51.609Z,-2.00
2019-02-08T09:20:35.987Z,-2.00
2019-02-08T09:23:13.975Z,-2.20
2019-02-08T09:26:06.447Z,-2.10
2019-02-08T09:28:42.329Z,-2.10
2019-02-08T09:31:32.835Z,-2.10
2019-02-08T09:34:26.073Z,-2.00
2019-02-08T09:37:14.842Z,-2.40
2019-02-08T09:39:55.936Z,-2.40
2019-02-08T09:42:53.141Z,-2.20
2019-02-08T09:45:41.985Z,-2.30
2019-02-08T09:48:30.024Z,-2.30
2019-02-08T09:51:29.573Z,-2.20
2019-02-08T09:54:36.592Z,-2.50
2019-02-08T09:57:14.423Z,-2.20
2019-02-08T10:00:05.249Z,-2.30
2019-02-08T10:02:46.757Z,-2.40
2019-02-08T10:05:38.355Z,-2.20
2019-02-08T10:08:28.462Z,-2.30
2019-02-08T10:11:28.012Z,-2.20
2019-02-08T10:14:28.919Z,-2.20
2019-02-08T10:17:35.163Z,-2.20
2019-02-08T10:20:15.683Z,-2.20
2019-02-08T10:22:53.938Z,-2.20
2019-02-08T10:25:26.412Z,-2.10
2019-02-08T10:28:27.556Z,-2.20
2019-02-08T10:31:08.695Z,-2.20
2019-02-08T10:34:02.983Z,-2.00
2019-02-08T10:36:51.917Z,-2.20
2019-02-08T10:39:46.802Z,-1.90
2019-02-08T10:42:54.000Z,-2.00
2019-02-08T10:45:29.306Z,-2.10
2019-02-08T10:48:06.814Z,-2.00
2019-02-08T10:50:51.409Z,-2.10
2019-02-08T10:53:26.666Z,-2.10
2019-02-08T10:56:16.258Z,-2.10
2019-02-08T10:59:04.024Z,-1.90
2019-02-08T11:01:57.972Z,-2.10
2019-02-08T11:04:50.147Z,-2.20
2019-02-08T11:07:47.989Z,-2.30
2019-02-08T11:10:35.572Z,-1.90
2019-02-08T11:13:25.768Z,-2.30
2019-02-08T11:16:18.232Z,-2.30
2019-02-08T11:19:17.697Z,-2.30
2019-02-08T11:21:47.967Z,-2.00
2019-02-08T11:24:19.105Z,-2.10
2019-02-08T11:26:48.282Z,-2.30
2019-02-08T11:29:17.997Z,-2.40
2019-02-08T11:31:47.775Z,-2.30
2019-02-08T11:34:17.386Z,-2.30
2019-02-08T11:36:46.554Z,-2.30
2019-02-08T11:39:16.703Z,-2.30
2019-02-08T11:41:46.828Z,-2.30
2019-02-08T11:44:16.084Z,-2.20
2019-02-08T11:46:45.281Z,-2.20
2019-02-08T11:49:14.482Z,-2.00
2019-02-08T11:51:43.690Z,-2.10
2019-02-08T11:54:13.262Z,-2.10
2019-02-08T11:56:42.389Z,-2.10
2019-02-08T11:59:11.593Z,-2.40
2019-02-08T12:01:41.553Z,-2.40
2019-02-08T12:04:10.466Z,-2.30
2019-02-08T12:06:40.396Z,-2.40
2019-02-08T12:09:11.196Z,-2.30
2019-02-08T12:11:40.363Z,-2.40
2019-02-08T12:14:09.880Z,-2.10
2019-02-08T12:16:38.976Z,-2.10
2019-02-08T12:19:08.297Z,-2.10
2019-02-08T12:21:37.580Z,-2.20
2019-02-08T12:24:07.325Z,-2.50
2019-02-08T12:26:38.040Z,-2.20
2019-02-08T12:29:08.645Z,-2.30
2019-02-08T12:31:37.866Z,-2.40
2019-02-08T12:34:06.976Z,-2.20
2019-02-08T12:36:36.347Z,-2.40
2019-02-08T12:39:09.073Z,-2.30
2019-02-08T12:41:37.932Z,-2.60
2019-02-08T12:44:07.379Z,-2.60
2019-02-08T12:46:37.474Z,-2.50
2019-02-08T12:49:06.772Z,-2.20
2019-02-08T12:51:36.336Z,-2.40
2019-02-08T12:54:05.880Z,-2.30
2019-02-08T12:56:34.876Z,-2.40
2019-02-08T12:59:04.587Z,-2.50
2019-02-08T13:01:37.684Z,-2.40
2019-02-08T13:04:05.087Z,-2.40
2019-02-08T13:06:34.386Z,-2.30
2019-02-08T13:09:05.225Z,-2.30
2019-02-08T13:11:34.573Z,-2.20
2019-02-08T13:14:03.867Z,-2.40
2019-02-08T13:16:33.965Z,-2.20
2019-02-08T13:19:03.425Z,-2.20
2019-02-08T13:21:32.592Z,-2.40
2019-02-08T13:24:01.358Z,-2.50
2019-02-08T13:26:30.562Z,-2.30
2019-02-08T13:28:59.357Z,-2.40
2019-02-08T13:31:29.199Z,-2.00
2019-02-08T13:34:00.011Z,-2.00
2019-02-08T13:36:29.067Z,-2.00
2019-02-08T13:38:58.373Z,-2.10
2019-02-08T13:41:27.710Z,-2.20
2019-02-08T13:43:56.978Z,-2.10
2019-02-08T13:46:26.426Z,-2.10
2019-02-08T13:48:55.718Z,-2.00
2019-02-08T13:51:24.974Z,-2.10
2019-02-08T13:53:54.349Z,-2.10
2019-02-08T13:56:23.613Z,-2.10
2019-02-08T13:58:52.847Z,-2.10
2019-02-08T14:01:22.034Z,-2.00
2019-02-08T14:03:51.276Z,-2.00
2019-02-08T14:06:20.565Z,-2.00
2019-02-08T14:08:49.341Z,-2.00
2019-02-08T14:11:18.549Z,-2.00
2019-02-08T14:13:48.043Z,-2.10
2019-02-08T14:16:16.688Z,-2.30
2019-02-08T14:18:46.000Z,-2.20
2019-02-08T14:21:15.472Z,-2.10
2019-02-08T14:23:44.541Z,-1.90
2019-02-08T14:26:13.782Z,-2.20
2019-02-08T14:28:42.986Z,-1.80
2019-02-08T14:31:12.025Z,-1.80
2019-02-08T14:33:41.353Z,-2.00
2019-02-08T14:36:11.029Z,-1.70
2019-02-08T14:38:40.581Z,-1.90
2019-02-08T14:41:14.376Z,-1.80
2019-02-08T14:43:43.432Z,-1.70
2019-02-08T14:46:13.161Z,-2.00
2019-02-08T14:48:42.437Z,-1.80
2019-02-08T14:51:11.801Z,-1.80
2019-02-08T14:53:41.151Z,-1.80
2019-02-08T14:56:10.346Z,-1.90
2019-02-08T14:58:39.556Z,-2.00
2019-02-08T15:01:08.822Z,-2.20
2019-02-08T15:03:38.095Z,-2.20
2019-02-08T15:06:07.112Z,-2.10
2019-02-08T15:08:36.557Z,-1.90
2019-02-08T15:11:07.057Z,-1.90
2019-02-08T15:13:36.746Z,-2.10
2019-02-08T15:16:07.085Z,-2.00
2019-02-08T15:18:36.664Z,-1.90
2019-02-08T15:21:05.916Z,-1.90
2019-02-08T15:23:35.073Z,-1.90
2019-02-08T15:26:04.225Z,-2.00
2019-02-08T15:28:33.281Z,-1.90
2019-02-08T15:31:02.480Z,-1.70
2019-02-08T15:33:31.886Z,-1.70
2019-02-08T15:36:00.753Z,-1.70
2019-02-08T15:38:29.413Z,-1.70
2019-02-08T15:40:58.380Z,-1.50
2019-02-08T15:43:27.044Z,-1.60
2019-02-08T15:45:58.218Z,-1.60
2019-02-08T15:48:27.490Z,-1.70
2019-02-08T15:50:56.752Z,-1.70
2019-02-08T15:53:26.363Z,-1.60
2019-02-08T15:56:01.352Z,-1.60
2019-02-08T15:58:30.631Z,-1.60
2019-02-08T16:01:00.377Z,-1.50
2019-02-08T16:03:29.395Z,-1.50
2019-02-08T16:05:58.728Z,-1.90
2019-02-08T16:08:29.000Z,-1.50
2019-02-08T16:10:59.181Z,-1.60
2019-02-08T16:13:28.546Z,-1.70
2019-02-08T16:15:58.033Z,-1.60
2019-02-08T16:18:26.993Z,-1.60
2019-02-08T16:20:56.319Z,-1.60
2019-02-08T16:23:25.411Z,-1.60
2019-02-08T16:25:54.724Z,-1.70
2019-02-08T16:28:23.264Z,-1.80
2019-02-08T16:30:52.488Z,-1.40
2019-02-08T16:33:21.791Z,-1.40
2019-02-08T16:35:51.103Z,-1.00
2019-02-08T16:38:21.134Z,-1.40
2019-02-08T16:40:50.485Z,-1.30
2019-02-08T16:43:19.951Z,-1.40
2019-02-08T16:45:49.119Z,-1.30
2019-02-08T16:48:19.433Z,-1.50
2019-02-08T16:50:48.749Z,-1.60
2019-02-08T16:53:19.768Z,-1.20
2019-02-08T16:55:49.787Z,-1.00
2019-02-08T16:58:18.711Z,-1.10
2019-02-08T17:00:47.989Z,-1.20
2019-02-08T17:03:17.248Z,-1.20
2019-02-08T17:05:46.527Z,-1.00
2019-02-08T17:08:17.186Z,-1.00
2019-02-08T17:10:46.433Z,-1.00
2019-02-08T17:13:15.593Z,-0.90
2019-02-08T17:15:45.869Z,-1.00
2019-02-08T17:18:15.090Z,-1.00
2019-02-08T17:20:49.512Z,-1.00
2019-02-08T17:23:18.797Z,-0.80
2019-02-08T17:25:48.424Z,-1.10
2019-02-08T17:28:17.434Z,-0.80
2019-02-08T17:30:46.621Z,-0.80
2019-02-08T17:33:15.647Z,-0.80
2019-02-08T17:35:45.847Z,-1.00
2019-02-08T17:38:15.607Z,-0.80
2019-02-08T17:40:47.232Z,-0.60
2019-02-08T17:43:16.415Z,-0.70
2019-02-08T17:45:45.754Z,-0.50
2019-02-08T17:48:15.871Z,-0.50
2019-02-08T17:50:44.533Z,-0.30
2019-02-08T17:53:13.247Z,-0.30
2019-02-08T17:55:43.278Z,0.00
2019-02-08T17:58:11.920Z,-0.10
2019-02-08T18:00:44.368Z,0.20
2019-02-08T18:03:13.898Z,0.00
2019-02-08T18:05:42.865Z,0.20
2019-02-08T18:08:12.005Z,0.50
2019-02-08T18:10:41.259Z,0.20
2019-02-08T18:13:10.509Z,0.60
2019-02-08T18:15:39.900Z,0.60
2019-02-08T18:18:10.738Z,1.00
2019-02-08T18:20:42.572Z,1.00
2019-02-08T18:23:11.930Z,1.10
2019-02-08T18:25:41.270Z,1.20
2019-02-08T18:28:11.309Z,1.30
2019-02-08T18:30:40.885Z,1.50
2019-02-08T18:33:10.053Z,1.50
2019-02-08T18:35:39.346Z,1.50
2019-02-08T18:38:08.188Z,1.30
2019-02-08T18:40:36.997Z,1.50
2019-02-08T18:43:06.324Z,1.50
2019-02-08T18:45:37.185Z,1.50
2019-02-08T18:48:07.864Z,1.30
2019-02-08T18:50:43.067Z,1.60
2019-02-08T18:53:12.692Z,1.70
2019-02-08T18:55:41.862Z,1.70
2019-02-08T18:58:18.460Z,1.80
2019-02-08T19:00:47.934Z,1.70
2019-02-08T19:03:17.424Z,1.70
2019-02-08T19:05:46.711Z,1.80
2019-02-08T19:08:15.958Z,2.10
2019-02-08T19:10:45.201Z,1.80
2019-02-08T19:13:14.208Z,2.40
2019-02-08T19:15:43.152Z,2.20
2019-02-08T19:18:12.486Z,2.30
2019-02-08T19:20:42.086Z,2.30
2019-02-08T19:23:11.216Z,1.90
2019-02-08T19:25:43.615Z,2.10
2019-02-08T19:28:13.355Z,2.20
2019-02-08T19:30:43.507Z,2.30
2019-02-08T19:33:12.888Z,2.30
2019-02-08T19:35:44.120Z,2.20
2019-02-08T19:38:13.309Z,2.40
2019-02-08T19:40:45.609Z,2.40
2019-02-08T19:43:14.997Z,2.70
2019-02-08T19:45:47.369Z,2.80
2019-02-08T19:48:16.627Z,3.00
2019-02-08T19:50:47.513Z,3.00
2019-02-08T19:53:17.840Z,2.70
2019-02-08T19:55:46.999Z,2.70
2019-02-08T19:58:16.294Z,3.10
2019-02-08T20:00:45.459Z,2.90
2019-02-08T20:03:14.271Z,3.00
2019-02-08T20:05:43.140Z,3.20
2019-02-08T20:08:13.194Z,3.00
2019-02-08T20:10:44.631Z,3.00
2019-02-08T20:13:14.266Z,3.20
2019-02-08T20:15:43.708Z,3.40
2019-02-08T20:18:13.225Z,3.20
2019-02-08T20:20:42.058Z,3.30
2019-02-08T20:23:11.465Z,3.20
2019-02-08T20:25:40.705Z,3.30
2019-02-08T20:28:10.951Z,3.50
2019-02-08T20:30:40.312Z,3.60
2019-02-08T20:33:09.579Z,4.00
2019-02-08T20:35:38.830Z,4.20
2019-02-08T20:38:07.909Z,4.00
2019-02-08T20:40:39.339Z,4.30
2019-02-08T20:43:08.805Z,4.10
2019-02-08T20:45:38.149Z,4.50
2019-02-08T20:48:12.349Z,4.80
2019-02-08T20:50:41.163Z,4.60
2019-02-08T20:53:09.828Z,4.40
2019-02-08T20:55:38.804Z,4.40
2019-02-08T20:58:11.530Z,4.90
2019-02-08T21:00:43.122Z,5.10
2019-02-08T21:03:13.293Z,5.00
2019-02-08T21:05:43.508Z,4.80
2019-02-08T21:08:12.925Z,5.20
2019-02-08T21:10:42.718Z,5.30
2019-02-08T21:13:12.073Z,5.30
2019-02-08T21:15:41.695Z,5.40
2019-02-08T21:18:11.170Z,5.40
2019-02-08T21:20:40.969Z,5.50
2019-02-08T21:23:10.443Z,5.60
2019-02-08T21:25:40.524Z,5.50
2019-02-08T21:28:09.383Z,5.40
2019-02-08T21:30:38.169Z,5.20
2019-02-08T21:33:09.237Z,5.60
2019-02-08T21:35:37.997Z,5.60
2019-02-08T21:38:07.460Z,5.60
2019-02-08T21:40:36.308Z,5.50
2019-02-08T21:43:06.345Z,5.50
2019-02-08T21:45:43.587Z,5.70
2019-02-08T21:48:13.270Z,5.60
2019-02-08T21:50:42.670Z,5.60
2019-02-08T21:53:12.007Z,5.50
2019-02-08T21:55:41.245Z,5.60
2019-02-08T21:58:10.488Z,5.60
2019-02-08T22:00:41.581Z,5.50
2019-02-08T22:03:10.734Z,5.10
2019-02-08T22:05:42.900Z,5.30
2019-02-08T22:08:12.423Z,5.00
2019-02-08T22:10:41.545Z,5.20
2019-02-08T22:13:10.568Z,5.30
2019-02-08T22:15:43.799Z,5.40
2019-02-08T22:18:12.922Z,5.60
2019-02-08T22:20:41.609Z,5.30
2019-02-08T22:23:10.707Z,5.70
2019-02-08T22:25:40.686Z,5.30
2019-02-08T22:28:10.068Z,5.70
2019-02-08T22:30:39.811Z,5.50
2019-02-08T22:33:10.056Z,5.40
2019-02-08T22:35:39.356Z,5.30
2019-02-08T22:38:08.987Z,5.60
2019-02-08T22:40:38.725Z,5.10
2019-02-08T22:43:07.763Z,5.30
2019-02-08T22:45:38.180Z,5.00
2019-02-08T22:48:07.539Z,4.90
2019-02-08T22:50:37.614Z,4.80
2019-02-08T22:53:08.491Z,5.00
2019-02-08T22:55:37.954Z,4.80
2019-02-08T22:58:08.104Z,5.30
2019-02-08T23:00:43.100Z,5.10
2019-02-08T23:03:13.318Z,4.90
2019-02-08T23:05:45.617Z,5.00
2019-02-08T23:08:14.428Z,4.70
2019-02-08T23:10:43.590Z,4.70
2019-02-08T23:13:12.879Z,4.50
2019-02-08T23:15:42.187Z,5.00
2019-02-08T23:18:11.999Z,4.80
2019-02-08T23:20:41.375Z,4.40
2019-02-08T23:23:11.091Z,4.40
2019-02-08T23:25:40.228Z,4.40
2019-02-08T23:28:09.210Z,4.70
2019-02-08T23:30:38.551Z,4.40
2019-02-08T23:33:07.888Z,4.20
2019-02-08T23:35:43.124Z,4.10
2019-02-08T23:38:09.629Z,4.10
2019-02-08T23:40:38.885Z,4.20
2019-02-08T23:43:08.542Z,4.30
2019-02-08T23:45:39.569Z,4.50
2019-02-08T23:48:08.412Z,4.10
2019-02-08T23:50:37.160Z,4.10
2019-02-08T23:53:06.331Z,4.20
2019-02-08T23:55:36.007Z,4.20
2019-02-08T23:58:05.827Z,4.20
